Rescue Uni — LF5005 — position and weather

sailwx.info

Track history (hours):
 
Tides and Currents Weather Stations Pressure Air Temp Water Temp Dewpoint Dewpoint Depression Visibility Wind Speed Wind Dir Waves Ship Positions

Rescue Uni

Last reported at 2015-Aug-04 02:33 UTC. Time now 2015-Aug-04 03:22 UTC.
Position N 63°26' E 010°23'.

; draft 0.7 m.

Type: SAR. MMSI: 257964900.

Date/timePositionNaut miles runAvg speedWind from/ knotsBaromVisibWave heightAir tempDewpointWater temp
2015-Aug-04 02:33N 63°26' E 010°23'0 0.0
2015-Aug-04 01:33N 63°26' E 010°23'0 0.0
2015-Aug-04 00:33N 63°26' E 010°23'0 0.0
2015-Aug-03 23:33N 63°26' E 010°23'0 0.0
2015-Aug-03 22:33N 63°26' E 010°23'0 0.0
2015-Aug-03 21:33N 63°26' E 010°23'0 0.0
2015-Aug-03 20:33N 63°26' E 010°23'0 0.0
2015-Aug-03 19:33N 63°26' E 010°23'0 0.0
2015-Aug-03 18:33N 63°26' E 010°23'0 0.0
2015-Aug-03 17:33N 63°26' E 010°23'0 0.0
2015-Aug-03 16:33N 63°26' E 010°23'0 0.0
2015-Aug-03 15:33N 63°26' E 010°23'0 0.0
2015-Aug-03 14:33N 63°26' E 010°23'0 0.0
2015-Aug-03 13:33N 63°26' E 010°23'0 0.0
2015-Aug-03 12:33N 63°26' E 010°23'0 0.0
2015-Aug-03 11:33N 63°26' E 010°23'0 0.0
2015-Aug-03 10:33N 63°26' E 010°23'0 0.0
2015-Aug-03 09:33N 63°26' E 010°23'0 0.0
2015-Aug-03 08:33N 63°26' E 010°23'0 0.0
2015-Aug-03 07:33N 63°26' E 010°23'0 0.0
2015-Aug-03 06:33N 63°26' E 010°23'0 0.0
2015-Aug-03 05:33N 63°26' E 010°23'0 0.0
2015-Aug-03 04:33N 63°26' E 010°23'0 0.0
2015-Aug-03 03:33N 63°26' E 010°23'0 0.0
2015-Aug-03 02:33N 63°26' E 010°23'0 0.0
2015-Aug-03 01:33N 63°26' E 010°23'0 0.0
2015-Aug-03 00:33N 63°26' E 010°23'0 0.0
2015-Aug-02 23:33N 63°26' E 010°23'0 0.0
2015-Aug-02 22:33N 63°26' E 010°23'0 0.0
2015-Aug-02 21:33N 63°26' E 010°23'0 0.0
2015-Aug-02 20:33N 63°26' E 010°23'0 0.0
2015-Aug-02 19:33N 63°26' E 010°23'0 0.0
2015-Aug-02 18:33N 63°26' E 010°23'0 0.0
2015-Aug-02 17:33N 63°26' E 010°23'0 0.0
2015-Aug-02 16:33N 63°26' E 010°23'0 0.0
2015-Aug-02 15:33N 63°26' E 010°23'0 0.0
2015-Aug-02 14:33N 63°26' E 010°23'8 8.1
2015-Aug-02 13:33N 63°28' E 010°40'3 2.7
2015-Aug-02 12:34N 63°27' E 010°46'1110.7
2015-Aug-02 11:34N 63°26' E 010°23'0 0.0
2015-Aug-02 10:34N 63°26' E 010°23'0 0.0
2015-Aug-02 09:33N 63°26' E 010°23'0 0.0
2015-Aug-02 08:34N 63°26' E 010°23'0 0.0
2015-Aug-02 07:34N 63°26' E 010°23'0 0.0
2015-Aug-02 06:34N 63°26' E 010°23'0 0.0
2015-Aug-02 05:33N 63°26' E 010°23'0 0.0
2015-Aug-02 04:34N 63°26' E 010°23'0 0.0
2015-Aug-02 03:33N 63°26' E 010°23'0 0.0
2015-Aug-02 02:33N 63°26' E 010°23'0 0.0
2015-Aug-02 01:33N 63°26' E 010°23'0 0.0
2015-Aug-02 00:33N 63°26' E 010°23'0 0.0
2015-Aug-01 23:34N 63°26' E 010°23'0 0.0
2015-Aug-01 22:34N 63°26' E 010°23'0 0.0
2015-Aug-01 21:33N 63°26' E 010°23'0 0.0
2015-Aug-01 20:34N 63°26' E 010°23'0 0.0
2015-Aug-01 19:34N 63°26' E 010°23'0 0.0
2015-Aug-01 18:34N 63°26' E 010°23'0 0.0
2015-Aug-01 17:33N 63°26' E 010°23'0 0.2
2015-Aug-01 16:34N 63°26' E 010°22'1717.5
2015-Aug-01 15:33N 63°39' E 010°48'15 9.8
2015-Aug-01 14:03N 63°50' E 011°10'1325.6
2015-Aug-01 13:33N 63°42' E 010°48'9 9.2
2015-Aug-01 12:33N 63°35' E 010°36'18 7.2
2015-Aug-01 10:07N 63°45' E 011°08'1729.9
2015-Aug-01 09:34N 63°36' E 010°37'1211.6
2015-Aug-01 08:33N 63°26' E 010°23'0 0.0
2015-Aug-01 07:33N 63°26' E 010°23'0 0.0
2015-Aug-01 06:33N 63°26' E 010°23'0 0.0
2015-Aug-01 05:33N 63°26' E 010°23'0 0.0
2015-Aug-01 04:33N 63°26' E 010°23'0 0.0
2015-Aug-01 03:33N 63°26' E 010°23'0 0.0
2015-Aug-01 02:33N 63°26' E 010°23'0 0.0
2015-Aug-01 01:33N 63°26' E 010°23'0 0.0
2015-Aug-01 00:33N 63°26' E 010°23'0 0.0
2015-Jul-31 23:33N 63°26' E 010°23'0 0.0
2015-Jul-31 22:33N 63°26' E 010°23'0 0.0
2015-Jul-31 21:33N 63°26' E 010°23'0 0.0
2015-Jul-31 20:33N 63°26' E 010°23'0 0.0
2015-Jul-31 19:33N 63°26' E 010°23'0 0.0
2015-Jul-31 18:33N 63°26' E 010°23'0 0.0
2015-Jul-31 17:33N 63°26' E 010°23'0 0.0
2015-Jul-31 16:33N 63°26' E 010°23'0 0.0
2015-Jul-31 15:33N 63°26' E 010°23'0 0.0
2015-Jul-31 14:33N 63°26' E 010°23'0 0.0
2015-Jul-31 13:33N 63°26' E 010°23'0 0.0
2015-Jul-31 12:33N 63°26' E 010°23'0 0.0
2015-Jul-31 11:33N 63°26' E 010°23'0 0.0
2015-Jul-31 10:33N 63°26' E 010°23'0 0.0
2015-Jul-31 09:33N 63°26' E 010°23'0 0.0
2015-Jul-31 08:33N 63°26' E 010°23'0 0.0
2015-Jul-31 07:33N 63°26' E 010°22'0 0.0
2015-Jul-31 06:33N 63°26' E 010°23'0 0.0
2015-Jul-31 05:33N 63°26' E 010°23'0 0.0
2015-Jul-31 04:33N 63°26' E 010°23'0 0.0
2015-Jul-31 03:33N 63°26' E 010°23'0 0.0
2015-Jul-31 02:33N 63°26' E 010°23'0 0.0
2015-Jul-31 01:33N 63°26' E 010°23'0 0.0
2015-Jul-31 00:33N 63°26' E 010°23'0 0.0
2015-Jul-30 23:33N 63°26' E 010°23'0 0.0
2015-Jul-30 22:33N 63°26' E 010°23'0 0.0
2015-Jul-30 21:33N 63°26' E 010°23'0 0.0
2015-Jul-30 20:33N 63°26' E 010°23'0 0.0
2015-Jul-30 19:33N 63°26' E 010°23'0 0.0
2015-Jul-30 18:33N 63°26' E 010°23'0 0.0
2015-Jul-30 17:33N 63°26' E 010°23'0 0.0
2015-Jul-30 16:33N 63°26' E 010°23'0 0.0
2015-Jul-30 15:33N 63°26' E 010°23'0 0.0
2015-Jul-30 14:33N 63°26' E 010°23'0 0.0
2015-Jul-30 13:33N 63°26' E 010°23'0 0.0
2015-Jul-30 12:33N 63°26' E 010°23'0 0.0
2015-Jul-30 11:33N 63°26' E 010°23'0 0.0
2015-Jul-30 10:33N 63°26' E 010°23'0 0.0
2015-Jul-30 09:33N 63°26' E 010°23'0 0.0
2015-Jul-30 08:33N 63°26' E 010°23'0 0.0
2015-Jul-30 07:33N 63°26' E 010°23'0 0.0
2015-Jul-30 06:33N 63°26' E 010°23'0 0.0
2015-Jul-30 05:33N 63°26' E 010°23'0 0.0
2015-Jul-30 04:33N 63°26' E 010°23'0 0.0
2015-Jul-30 03:33N 63°26' E 010°23'0 0.0
2015-Jul-30 02:33N 63°26' E 010°23'0 0.0
2015-Jul-30 01:33N 63°26' E 010°23'0 0.0
2015-Jul-30 00:33N 63°26' E 010°23'0 0.0
2015-Jul-29 23:33N 63°26' E 010°23'0 0.0
2015-Jul-29 22:33N 63°26' E 010°23'0 0.0
2015-Jul-29 21:33N 63°26' E 010°23'0 0.0
2015-Jul-29 20:33N 63°26' E 010°23'0 0.0
2015-Jul-29 19:33N 63°26' E 010°23'0 0.0
2015-Jul-29 18:33N 63°26' E 010°23'0 0.0
2015-Jul-29 17:33N 63°26' E 010°23'0 0.0
2015-Jul-29 16:33N 63°26' E 010°23'0 0.0
2015-Jul-29 15:33N 63°26' E 010°23'0 0.0
2015-Jul-29 14:33N 63°26' E 010°23'0 0.0
2015-Jul-29 13:33N 63°26' E 010°23'0 0.0
2015-Jul-29 12:33N 63°26' E 010°23'0 0.0
2015-Jul-29 11:33N 63°26' E 010°23'0 0.0
2015-Jul-29 10:33N 63°26' E 010°23'0 0.0
2015-Jul-29 09:33N 63°26' E 010°23'0 0.0
2015-Jul-29 08:33N 63°26' E 010°23'0 0.0
2015-Jul-29 07:33N 63°26' E 010°23'0 0.0
2015-Jul-29 06:33N 63°26' E 010°23'0 0.0
2015-Jul-29 05:33N 63°26' E 010°23'0 0.0
2015-Jul-29 04:33N 63°26' E 010°23'0 0.0
2015-Jul-29 03:33N 63°26' E 010°23'0 0.0
2015-Jul-29 02:33N 63°26' E 010°23'0 0.0
2015-Jul-29 01:33N 63°26' E 010°23'0 0.0
2015-Jul-29 00:33N 63°26' E 010°23'0 0.0
2015-Jul-28 23:33N 63°26' E 010°23'0 0.1
2015-Jul-28 22:33N 63°26' E 010°22'1817.8
2015-Jul-28 21:33N 63°36' E 010°55'5 4.9
2015-Jul-28 20:34N 63°33' E 010°48'1313.0
2015-Jul-28 19:33N 63°26' E 010°23'0 0.0
2015-Jul-28 18:34N 63°26' E 010°23'0 0.0
2015-Jul-28 17:34N 63°26' E 010°23'0 0.0
2015-Jul-28 16:33N 63°26' E 010°23'0 0.0
2015-Jul-28 15:33N 63°26' E 010°23'0 0.0
2015-Jul-28 14:33N 63°26' E 010°23'0 0.0
2015-Jul-28 13:34N 63°26' E 010°23'0 0.0
2015-Jul-28 12:33N 63°26' E 010°23'0 0.0
2015-Jul-28 11:33N 63°26' E 010°23'0 0.0
2015-Jul-28 10:33N 63°26' E 010°23'0 0.0
2015-Jul-28 09:33N 63°26' E 010°23'0 0.0
2015-Jul-28 08:33N 63°26' E 010°23'0 0.0
2015-Jul-28 07:34N 63°26' E 010°23'0 0.0
2015-Jul-28 06:33N 63°26' E 010°23'0 0.0
2015-Jul-28 05:33N 63°26' E 010°23'0 0.0
2015-Jul-28 04:33N 63°26' E 010°23'0 0.0
2015-Jul-28 03:33N 63°26' E 010°23'0 0.0
2015-Jul-28 02:33N 63°26' E 010°23'0 0.0
2015-Jul-28 01:33N 63°26' E 010°23'0 0.0
2015-Jul-28 00:33N 63°26' E 010°23'0 0.0
2015-Jul-27 23:34N 63°26' E 010°23'0 0.0
2015-Jul-27 22:33N 63°26' E 010°23'0 0.0
2015-Jul-27 21:34N 63°26' E 010°23'0 0.0
2015-Jul-27 20:34N 63°26' E 010°23'0 0.0
2015-Jul-27 19:34N 63°26' E 010°23'0 0.1
2015-Jul-27 18:33N 63°26' E 010°22'0 0.3
2015-Jul-27 17:33N 63°26' E 010°22'0 0.4
2015-Jul-27 16:33N 63°26' E 010°23'0 0.0
2015-Jul-27 15:33N 63°26' E 010°23'0 0.0
2015-Jul-27 14:33N 63°26' E 010°23'0 0.0
2015-Jul-27 13:33N 63°26' E 010°23'0 0.0
2015-Jul-27 12:33N 63°26' E 010°23'0 0.0
2015-Jul-27 11:33N 63°26' E 010°23'0 0.0
2015-Jul-27 10:33N 63°26' E 010°23'0 0.0
2015-Jul-27 09:33N 63°26' E 010°23'0 0.0
2015-Jul-27 08:33N 63°26' E 010°23'0 0.0
2015-Jul-27 07:33N 63°26' E 010°23'0 0.0
2015-Jul-27 06:33N 63°26' E 010°23'0 0.0
2015-Jul-27 05:33N 63°26' E 010°23'0 0.0
2015-Jul-27 04:33N 63°26' E 010°23'0 0.0
2015-Jul-27 03:33N 63°26' E 010°23'0 0.0
2015-Jul-27 02:33N 63°26' E 010°23'0 0.0
2015-Jul-27 01:33N 63°26' E 010°23'0 0.0
2015-Jul-27 00:34N 63°26' E 010°23'0 0.0
2015-Jul-26 23:33N 63°26' E 010°23'0 0.0
2015-Jul-26 22:33N 63°26' E 010°23'0 0.0
2015-Jul-26 21:33N 63°26' E 010°23'0 0.0
2015-Jul-26 20:33N 63°26' E 010°23'0 0.0
2015-Jul-26 19:33N 63°26' E 010°23'0 0.0
2015-Jul-26 18:33N 63°26' E 010°23'0 0.0
2015-Jul-26 17:33N 63°26' E 010°23'0 0.0
2015-Jul-26 16:33N 63°26' E 010°23'0 0.0
2015-Jul-26 15:33N 63°26' E 010°23'0 0.0
2015-Jul-26 14:33N 63°26' E 010°23'0 0.0
2015-Jul-26 13:33N 63°26' E 010°23'0 0.0
2015-Jul-26 12:34N 63°26' E 010°23'0 0.0
2015-Jul-26 11:33N 63°26' E 010°23'0 0.0
2015-Jul-26 10:33N 63°26' E 010°23'0 0.0
2015-Jul-26 09:33N 63°26' E 010°23'0 0.0
2015-Jul-26 08:33N 63°26' E 010°23'0 0.0
2015-Jul-26 07:33N 63°26' E 010°23'0 0.0
2015-Jul-26 06:33N 63°26' E 010°23'0 0.0
2015-Jul-26 05:33N 63°26' E 010°23'0 0.0
2015-Jul-26 04:33N 63°26' E 010°23'0 0.0
2015-Jul-26 03:33N 63°26' E 010°23'0 0.0
2015-Jul-26 02:33N 63°26' E 010°23'0 0.0
2015-Jul-26 01:33N 63°26' E 010°23'0 0.0
2015-Jul-26 00:33N 63°26' E 010°23'5 5.2
2015-Jul-25 23:34N 63°28' E 010°12'16 1.2
2015-Jul-25 10:17N 63°41' E 009°52'1418.8
2015-Jul-25 09:33N 63°29' E 010°05'8 8.4
2015-Jul-25 08:33N 63°26' E 010°23'0 0.0
2015-Jul-25 07:33N 63°26' E 010°23'0 0.0
2015-Jul-25 06:33N 63°26' E 010°23'0 0.0
2015-Jul-25 05:33N 63°26' E 010°23'0 0.0
2015-Jul-25 04:33N 63°26' E 010°23'0 0.0
2015-Jul-25 03:33N 63°26' E 010°23'0 0.0
2015-Jul-25 02:33N 63°26' E 010°23'  
Track history (hours):
 
Tides and Currents Weather Stations Pressure Air Temp Water Temp Dewpoint Dewpoint Depression Visibility Wind Speed Wind Dir Waves Ship Positions

Rescue Uni

Last reported at 2015-Aug-04 02:33 UTC. Time now 2015-Aug-04 03:22 UTC.
Position N 63°26' E 010°23'.

; draft 0.7 m.

Type: SAR. MMSI: 257964900.

Date/timePositionNaut miles runAvg speedWind from/ knotsBaromVisibWave heightAir tempDewpointWater temp
2015-Aug-04 02:33N 63°26' E 010°23'0 0.0
2015-Aug-04 01:33N 63°26' E 010°23'0 0.0
2015-Aug-04 00:33N 63°26' E 010°23'0 0.0
2015-Aug-03 23:33N 63°26' E 010°23'0 0.0
2015-Aug-03 22:33N 63°26' E 010°23'0 0.0
2015-Aug-03 21:33N 63°26' E 010°23'0 0.0
2015-Aug-03 20:33N 63°26' E 010°23'0 0.0
2015-Aug-03 19:33N 63°26' E 010°23'0 0.0
2015-Aug-03 18:33N 63°26' E 010°23'0 0.0
2015-Aug-03 17:33N 63°26' E 010°23'0 0.0
2015-Aug-03 16:33N 63°26' E 010°23'0 0.0
2015-Aug-03 15:33N 63°26' E 010°23'0 0.0
2015-Aug-03 14:33N 63°26' E 010°23'0 0.0
2015-Aug-03 13:33N 63°26' E 010°23'0 0.0
2015-Aug-03 12:33N 63°26' E 010°23'0 0.0
2015-Aug-03 11:33N 63°26' E 010°23'0 0.0
2015-Aug-03 10:33N 63°26' E 010°23'0 0.0
2015-Aug-03 09:33N 63°26' E 010°23'0 0.0
2015-Aug-03 08:33N 63°26' E 010°23'0 0.0
2015-Aug-03 07:33N 63°26' E 010°23'0 0.0
2015-Aug-03 06:33N 63°26' E 010°23'0 0.0
2015-Aug-03 05:33N 63°26' E 010°23'0 0.0
2015-Aug-03 04:33N 63°26' E 010°23'0 0.0
2015-Aug-03 03:33N 63°26' E 010°23'0 0.0
2015-Aug-03 02:33N 63°26' E 010°23'0 0.0
2015-Aug-03 01:33N 63°26' E 010°23'0 0.0
2015-Aug-03 00:33N 63°26' E 010°23'0 0.0
2015-Aug-02 23:33N 63°26' E 010°23'0 0.0
2015-Aug-02 22:33N 63°26' E 010°23'0 0.0
2015-Aug-02 21:33N 63°26' E 010°23'0 0.0
2015-Aug-02 20:33N 63°26' E 010°23'0 0.0
2015-Aug-02 19:33N 63°26' E 010°23'0 0.0
2015-Aug-02 18:33N 63°26' E 010°23'0 0.0
2015-Aug-02 17:33N 63°26' E 010°23'0 0.0
2015-Aug-02 16:33N 63°26' E 010°23'0 0.0
2015-Aug-02 15:33N 63°26' E 010°23'0 0.0
2015-Aug-02 14:33N 63°26' E 010°23'8 8.1
2015-Aug-02 13:33N 63°28' E 010°40'3 2.7
2015-Aug-02 12:34N 63°27' E 010°46'1110.7
2015-Aug-02 11:34N 63°26' E 010°23'0 0.0
2015-Aug-02 10:34N 63°26' E 010°23'0 0.0
2015-Aug-02 09:33N 63°26' E 010°23'0 0.0
2015-Aug-02 08:34N 63°26' E 010°23'0 0.0
2015-Aug-02 07:34N 63°26' E 010°23'0 0.0
2015-Aug-02 06:34N 63°26' E 010°23'0 0.0
2015-Aug-02 05:33N 63°26' E 010°23'0 0.0
2015-Aug-02 04:34N 63°26' E 010°23'0 0.0
2015-Aug-02 03:33N 63°26' E 010°23'0 0.0
2015-Aug-02 02:33N 63°26' E 010°23'0 0.0
2015-Aug-02 01:33N 63°26' E 010°23'0 0.0
2015-Aug-02 00:33N 63°26' E 010°23'0 0.0
2015-Aug-01 23:34N 63°26' E 010°23'0 0.0
2015-Aug-01 22:34N 63°26' E 010°23'0 0.0
2015-Aug-01 21:33N 63°26' E 010°23'0 0.0
2015-Aug-01 20:34N 63°26' E 010°23'0 0.0
2015-Aug-01 19:34N 63°26' E 010°23'0 0.0
2015-Aug-01 18:34N 63°26' E 010°23'0 0.0
2015-Aug-01 17:33N 63°26' E 010°23'0 0.2
2015-Aug-01 16:34N 63°26' E 010°22'1717.5
2015-Aug-01 15:33N 63°39' E 010°48'15 9.8
2015-Aug-01 14:03N 63°50' E 011°10'1325.6
2015-Aug-01 13:33N 63°42' E 010°48'9 9.2
2015-Aug-01 12:33N 63°35' E 010°36'18 7.2
2015-Aug-01 10:07N 63°45' E 011°08'1729.9
2015-Aug-01 09:34N 63°36' E 010°37'1211.6
2015-Aug-01 08:33N 63°26' E 010°23'0 0.0
2015-Aug-01 07:33N 63°26' E 010°23'0 0.0
2015-Aug-01 06:33N 63°26' E 010°23'0 0.0
2015-Aug-01 05:33N 63°26' E 010°23'0 0.0
2015-Aug-01 04:33N 63°26' E 010°23'0 0.0
2015-Aug-01 03:33N 63°26' E 010°23'0 0.0
2015-Aug-01 02:33N 63°26' E 010°23'0 0.0
2015-Aug-01 01:33N 63°26' E 010°23'0 0.0
2015-Aug-01 00:33N 63°26' E 010°23'0 0.0
2015-Jul-31 23:33N 63°26' E 010°23'0 0.0
2015-Jul-31 22:33N 63°26' E 010°23'0 0.0
2015-Jul-31 21:33N 63°26' E 010°23'0 0.0
2015-Jul-31 20:33N 63°26' E 010°23'0 0.0
2015-Jul-31 19:33N 63°26' E 010°23'0 0.0
2015-Jul-31 18:33N 63°26' E 010°23'0 0.0
2015-Jul-31 17:33N 63°26' E 010°23'0 0.0
2015-Jul-31 16:33N 63°26' E 010°23'0 0.0
2015-Jul-31 15:33N 63°26' E 010°23'0 0.0
2015-Jul-31 14:33N 63°26' E 010°23'0 0.0
2015-Jul-31 13:33N 63°26' E 010°23'0 0.0
2015-Jul-31 12:33N 63°26' E 010°23'0 0.0
2015-Jul-31 11:33N 63°26' E 010°23'0 0.0
2015-Jul-31 10:33N 63°26' E 010°23'0 0.0
2015-Jul-31 09:33N 63°26' E 010°23'0 0.0
2015-Jul-31 08:33N 63°26' E 010°23'0 0.0
2015-Jul-31 07:33N 63°26' E 010°22'0 0.0
2015-Jul-31 06:33N 63°26' E 010°23'0 0.0
2015-Jul-31 05:33N 63°26' E 010°23'0 0.0
2015-Jul-31 04:33N 63°26' E 010°23'0 0.0
2015-Jul-31 03:33N 63°26' E 010°23'0 0.0
2015-Jul-31 02:33N 63°26' E 010°23'0 0.0
2015-Jul-31 01:33N 63°26' E 010°23'0 0.0
2015-Jul-31 00:33N 63°26' E 010°23'0 0.0
2015-Jul-30 23:33N 63°26' E 010°23'0 0.0
2015-Jul-30 22:33N 63°26' E 010°23'0 0.0
2015-Jul-30 21:33N 63°26' E 010°23'0 0.0
2015-Jul-30 20:33N 63°26' E 010°23'0 0.0
2015-Jul-30 19:33N 63°26' E 010°23'0 0.0
2015-Jul-30 18:33N 63°26' E 010°23'0 0.0
2015-Jul-30 17:33N 63°26' E 010°23'0 0.0
2015-Jul-30 16:33N 63°26' E 010°23'0 0.0
2015-Jul-30 15:33N 63°26' E 010°23'0 0.0
2015-Jul-30 14:33N 63°26' E 010°23'0 0.0
2015-Jul-30 13:33N 63°26' E 010°23'0 0.0
2015-Jul-30 12:33N 63°26' E 010°23'0 0.0
2015-Jul-30 11:33N 63°26' E 010°23'0 0.0
2015-Jul-30 10:33N 63°26' E 010°23'0 0.0
2015-Jul-30 09:33N 63°26' E 010°23'0 0.0
2015-Jul-30 08:33N 63°26' E 010°23'0 0.0
2015-Jul-30 07:33N 63°26' E 010°23'0 0.0
2015-Jul-30 06:33N 63°26' E 010°23'0 0.0
2015-Jul-30 05:33N 63°26' E 010°23'0 0.0
2015-Jul-30 04:33N 63°26' E 010°23'0 0.0
2015-Jul-30 03:33N 63°26' E 010°23'0 0.0
2015-Jul-30 02:33N 63°26' E 010°23'0 0.0
2015-Jul-30 01:33N 63°26' E 010°23'0 0.0
2015-Jul-30 00:33N 63°26' E 010°23'0 0.0
2015-Jul-29 23:33N 63°26' E 010°23'0 0.0
2015-Jul-29 22:33N 63°26' E 010°23'0 0.0
2015-Jul-29 21:33N 63°26' E 010°23'0 0.0
2015-Jul-29 20:33N 63°26' E 010°23'0 0.0
2015-Jul-29 19:33N 63°26' E 010°23'0 0.0
2015-Jul-29 18:33N 63°26' E 010°23'0 0.0
2015-Jul-29 17:33N 63°26' E 010°23'0 0.0
2015-Jul-29 16:33N 63°26' E 010°23'0 0.0
2015-Jul-29 15:33N 63°26' E 010°23'0 0.0
2015-Jul-29 14:33N 63°26' E 010°23'0 0.0
2015-Jul-29 13:33N 63°26' E 010°23'0 0.0
2015-Jul-29 12:33N 63°26' E 010°23'0 0.0
2015-Jul-29 11:33N 63°26' E 010°23'0 0.0
2015-Jul-29 10:33N 63°26' E 010°23'0 0.0
2015-Jul-29 09:33N 63°26' E 010°23'0 0.0
2015-Jul-29 08:33N 63°26' E 010°23'0 0.0
2015-Jul-29 07:33N 63°26' E 010°23'0 0.0
2015-Jul-29 06:33N 63°26' E 010°23'0 0.0
2015-Jul-29 05:33N 63°26' E 010°23'0 0.0
2015-Jul-29 04:33N 63°26' E 010°23'0 0.0
2015-Jul-29 03:33N 63°26' E 010°23'0 0.0
2015-Jul-29 02:33N 63°26' E 010°23'0 0.0
2015-Jul-29 01:33N 63°26' E 010°23'0 0.0
2015-Jul-29 00:33N 63°26' E 010°23'0 0.0
2015-Jul-28 23:33N 63°26' E 010°23'0 0.1
2015-Jul-28 22:33N 63°26' E 010°22'1817.8
2015-Jul-28 21:33N 63°36' E 010°55'5 4.9
2015-Jul-28 20:34N 63°33' E 010°48'1313.0
2015-Jul-28 19:33N 63°26' E 010°23'0 0.0
2015-Jul-28 18:34N 63°26' E 010°23'0 0.0
2015-Jul-28 17:34N 63°26' E 010°23'0 0.0
2015-Jul-28 16:33N 63°26' E 010°23'0 0.0
2015-Jul-28 15:33N 63°26' E 010°23'0 0.0
2015-Jul-28 14:33N 63°26' E 010°23'0 0.0
2015-Jul-28 13:34N 63°26' E 010°23'0 0.0
2015-Jul-28 12:33N 63°26' E 010°23'0 0.0
2015-Jul-28 11:33N 63°26' E 010°23'0 0.0
2015-Jul-28 10:33N 63°26' E 010°23'0 0.0
2015-Jul-28 09:33N 63°26' E 010°23'0 0.0
2015-Jul-28 08:33N 63°26' E 010°23'0 0.0
2015-Jul-28 07:34N 63°26' E 010°23'0 0.0
2015-Jul-28 06:33N 63°26' E 010°23'0 0.0
2015-Jul-28 05:33N 63°26' E 010°23'0 0.0
2015-Jul-28 04:33N 63°26' E 010°23'0 0.0
2015-Jul-28 03:33N 63°26' E 010°23'0 0.0
2015-Jul-28 02:33N 63°26' E 010°23'0 0.0
2015-Jul-28 01:33N 63°26' E 010°23'0 0.0
2015-Jul-28 00:33N 63°26' E 010°23'0 0.0
2015-Jul-27 23:34N 63°26' E 010°23'0 0.0
2015-Jul-27 22:33N 63°26' E 010°23'0 0.0
2015-Jul-27 21:34N 63°26' E 010°23'0 0.0
2015-Jul-27 20:34N 63°26' E 010°23'0 0.0
2015-Jul-27 19:34N 63°26' E 010°23'0 0.1
2015-Jul-27 18:33N 63°26' E 010°22'0 0.3
2015-Jul-27 17:33N 63°26' E 010°22'0 0.4
2015-Jul-27 16:33N 63°26' E 010°23'0 0.0
2015-Jul-27 15:33N 63°26' E 010°23'0 0.0
2015-Jul-27 14:33N 63°26' E 010°23'0 0.0
2015-Jul-27 13:33N 63°26' E 010°23'0 0.0
2015-Jul-27 12:33N 63°26' E 010°23'0 0.0
2015-Jul-27 11:33N 63°26' E 010°23'0 0.0
2015-Jul-27 10:33N 63°26' E 010°23'0 0.0
2015-Jul-27 09:33N 63°26' E 010°23'0 0.0
2015-Jul-27 08:33N 63°26' E 010°23'0 0.0
2015-Jul-27 07:33N 63°26' E 010°23'0 0.0
2015-Jul-27 06:33N 63°26' E 010°23'0 0.0
2015-Jul-27 05:33N 63°26' E 010°23'0 0.0
2015-Jul-27 04:33N 63°26' E 010°23'0 0.0
2015-Jul-27 03:33N 63°26' E 010°23'0 0.0
2015-Jul-27 02:33N 63°26' E 010°23'0 0.0
2015-Jul-27 01:33N 63°26' E 010°23'0 0.0
2015-Jul-27 00:34N 63°26' E 010°23'0 0.0
2015-Jul-26 23:33N 63°26' E 010°23'0 0.0
2015-Jul-26 22:33N 63°26' E 010°23'0 0.0
2015-Jul-26 21:33N 63°26' E 010°23'0 0.0
2015-Jul-26 20:33N 63°26' E 010°23'0 0.0
2015-Jul-26 19:33N 63°26' E 010°23'0 0.0
2015-Jul-26 18:33N 63°26' E 010°23'0 0.0
2015-Jul-26 17:33N 63°26' E 010°23'0 0.0
2015-Jul-26 16:33N 63°26' E 010°23'0 0.0
2015-Jul-26 15:33N 63°26' E 010°23'0 0.0
2015-Jul-26 14:33N 63°26' E 010°23'0 0.0
2015-Jul-26 13:33N 63°26' E 010°23'0 0.0
2015-Jul-26 12:34N 63°26' E 010°23'0 0.0
2015-Jul-26 11:33N 63°26' E 010°23'0 0.0
2015-Jul-26 10:33N 63°26' E 010°23'0 0.0
2015-Jul-26 09:33N 63°26' E 010°23'0 0.0
2015-Jul-26 08:33N 63°26' E 010°23'0 0.0
2015-Jul-26 07:33N 63°26' E 010°23'0 0.0
2015-Jul-26 06:33N 63°26' E 010°23'0 0.0
2015-Jul-26 05:33N 63°26' E 010°23'0 0.0
2015-Jul-26 04:33N 63°26' E 010°23'0 0.0
2015-Jul-26 03:33N 63°26' E 010°23'0 0.0
2015-Jul-26 02:33N 63°26' E 010°23'0 0.0
2015-Jul-26 01:33N 63°26' E 010°23'0 0.0
2015-Jul-26 00:33N 63°26' E 010°23'5 5.2
2015-Jul-25 23:34N 63°28' E 010°12'16 1.2
2015-Jul-25 10:17N 63°41' E 009°52'1418.8
2015-Jul-25 09:33N 63°29' E 010°05'8 8.4
2015-Jul-25 08:33N 63°26' E 010°23'0 0.0
2015-Jul-25 07:33N 63°26' E 010°23'0 0.0
2015-Jul-25 06:33N 63°26' E 010°23'0 0.0
2015-Jul-25 05:33N 63°26' E 010°23'0 0.0
2015-Jul-25 04:33N 63°26' E 010°23'0 0.0
2015-Jul-25 03:33N 63°26' E 010°23'0 0.0
2015-Jul-25 02:33N 63°26' E 010°23'  

Dump ship's entire track history